sensor_id;sensor_type;location;lat;lon;timestamp;temperature;humidity
11423;DHT22;5768;51.476;7.210;2022-09-09T00:01:07;17.40;24.30
11423;DHT22;5768;51.476;7.210;2022-09-09T00:06:19;17.40;23.80
11423;DHT22;5768;51.476;7.210;2022-09-09T00:11:30;17.40;23.20
11423;DHT22;5768;51.476;7.210;2022-09-09T00:16:43;17.50;23.40
11423;DHT22;5768;51.476;7.210;2022-09-09T00:21:59;17.40;24.10
11423;DHT22;5768;51.476;7.210;2022-09-09T00:27:14;17.40;23.60
11423;DHT22;5768;51.476;7.210;2022-09-09T00:32:25;17.50;22.90
11423;DHT22;5768;51.476;7.210;2022-09-09T00:37:31;17.50;23.40
11423;DHT22;5768;51.476;7.210;2022-09-09T00:42:41;17.30;23.70
11423;DHT22;5768;51.476;7.210;2022-09-09T00:47:50;17.20;23.90
11423;DHT22;5768;51.476;7.210;2022-09-09T00:52:59;17.10;23.90
11423;DHT22;5768;51.476;7.210;2022-09-09T00:58:11;17.10;24.50
11423;DHT22;5768;51.476;7.210;2022-09-09T01:03:21;17.00;25.00
11423;DHT22;5768;51.476;7.210;2022-09-09T01:08:42;17.00;25.20
11423;DHT22;5768;51.476;7.210;2022-09-09T01:13:56;17.20;25.20
11423;DHT22;5768;51.476;7.210;2022-09-09T01:19:07;17.20;25.00
11423;DHT22;5768;51.476;7.210;2022-09-09T01:24:22;17.20;24.60
11423;DHT22;5768;51.476;7.210;2022-09-09T01:29:30;17.20;24.70
11423;DHT22;5768;51.476;7.210;2022-09-09T01:34:36;17.10;24.90
11423;DHT22;5768;51.476;7.210;2022-09-09T01:39:43;17.10;25.10
11423;DHT22;5768;51.476;7.210;2022-09-09T01:44:47;17.00;25.70
11423;DHT22;5768;51.476;7.210;2022-09-09T01:49:50;17.00;25.80
11423;DHT22;5768;51.476;7.210;2022-09-09T01:54:52;17.20;25.70
11423;DHT22;5768;51.476;7.210;2022-09-09T02:00:03;17.40;25.50
11423;DHT22;5768;51.476;7.210;2022-09-09T02:05:17;17.40;25.50
11423;DHT22;5768;51.476;7.210;2022-09-09T02:10:39;17.30;25.50
11423;DHT22;5768;51.476;7.210;2022-09-09T02:15:53;17.30;25.20
11423;DHT22;5768;51.476;7.210;2022-09-09T02:20:59;17.20;26.00
11423;DHT22;5768;51.476;7.210;2022-09-09T02:26:02;17.10;26.30
11423;DHT22;5768;51.476;7.210;2022-09-09T02:31:07;17.00;26.90
11423;DHT22;5768;51.476;7.210;2022-09-09T02:36:11;17.10;26.60
11423;DHT22;5768;51.476;7.210;2022-09-09T02:41:19;17.00;26.90
11423;DHT22;5768;51.476;7.210;2022-09-09T02:46:36;17.10;27.30
11423;DHT22;5768;51.476;7.210;2022-09-09T02:51:53;17.10;26.70
11423;DHT22;5768;51.476;7.210;2022-09-09T02:57:05;17.20;26.60
11423;DHT22;5768;51.476;7.210;2022-09-09T03:02:13;17.30;26.60
11423;DHT22;5768;51.476;7.210;2022-09-09T03:07:15;17.40;26.70
11423;DHT22;5768;51.476;7.210;2022-09-09T03:12:18;17.40;26.30
11423;DHT22;5768;51.476;7.210;2022-09-09T03:17:21;17.30;26.00
11423;DHT22;5768;51.476;7.210;2022-09-09T03:22:23;17.40;26.30
11423;DHT22;5768;51.476;7.210;2022-09-09T03:27:26;17.30;25.30
11423;DHT22;5768;51.476;7.210;2022-09-09T03:32:29;17.30;25.30
11423;DHT22;5768;51.476;7.210;2022-09-09T03:37:31;17.30;26.00
11423;DHT22;5768;51.476;7.210;2022-09-09T03:42:34;17.20;25.80
11423;DHT22;5768;51.476;7.210;2022-09-09T03:47:39;17.20;26.00
11423;DHT22;5768;51.476;7.210;2022-09-09T03:52:41;17.10;26.50
11423;DHT22;5768;51.476;7.210;2022-09-09T03:57:44;17.00;26.10
11423;DHT22;5768;51.476;7.210;2022-09-09T04:02:48;17.00;26.50
11423;DHT22;5768;51.476;7.210;2022-09-09T04:07:50;17.10;25.60
11423;DHT22;5768;51.476;7.210;2022-09-09T04:12:52;17.00;25.70
11423;DHT22;5768;51.476;7.210;2022-09-09T04:17:56;17.10;25.90
11423;DHT22;5768;51.476;7.210;2022-09-09T04:22:59;17.20;25.50
11423;DHT22;5768;51.476;7.210;2022-09-09T04:28:01;17.20;25.80
11423;DHT22;5768;51.476;7.210;2022-09-09T04:33:05;17.20;25.80
11423;DHT22;5768;51.476;7.210;2022-09-09T04:38:08;17.10;25.90
11423;DHT22;5768;51.476;7.210;2022-09-09T04:43:10;17.10;26.10
11423;DHT22;5768;51.476;7.210;2022-09-09T04:48:14;16.90;26.50
11423;DHT22;5768;51.476;7.210;2022-09-09T04:53:16;16.90;26.40
11423;DHT22;5768;51.476;7.210;2022-09-09T04:58:18;16.90;26.30
11423;DHT22;5768;51.476;7.210;2022-09-09T05:03:43;17.00;26.30
11423;DHT22;5768;51.476;7.210;2022-09-09T05:08:46;17.20;25.80
11423;DHT22;5768;51.476;7.210;2022-09-09T05:13:50;17.20;25.50
11423;DHT22;5768;51.476;7.210;2022-09-09T05:18:53;17.30;25.90
11423;DHT22;5768;51.476;7.210;2022-09-09T05:23:55;17.40;25.80
11423;DHT22;5768;51.476;7.210;2022-09-09T05:28:58;17.50;25.60
11423;DHT22;5768;51.476;7.210;2022-09-09T05:34:02;17.50;25.20
11423;DHT22;5768;51.476;7.210;2022-09-09T05:39:04;17.60;24.90
11423;DHT22;5768;51.476;7.210;2022-09-09T05:44:06;17.70;24.50
11423;DHT22;5768;51.476;7.210;2022-09-09T05:49:09;17.80;23.90
11423;DHT22;5768;51.476;7.210;2022-09-09T05:54:11;17.90;24.40
11423;DHT22;5768;51.476;7.210;2022-09-09T05:59:15;18.00;24.00
11423;DHT22;5768;51.476;7.210;2022-09-09T06:04:20;18.10;23.90
11423;DHT22;5768;51.476;7.210;2022-09-09T06:09:24;18.20;22.60
11423;DHT22;5768;51.476;7.210;2022-09-09T06:14:27;18.20;22.50
11423;DHT22;5768;51.476;7.210;2022-09-09T06:19:30;18.30;23.00
11423;DHT22;5768;51.476;7.210;2022-09-09T06:24:32;18.50;21.70
11423;DHT22;5768;51.476;7.210;2022-09-09T06:29:34;18.60;21.00
11423;DHT22;5768;51.476;7.210;2022-09-09T06:34:38;18.60;20.90
11423;DHT22;5768;51.476;7.210;2022-09-09T06:39:40;18.90;21.00
11423;DHT22;5768;51.476;7.210;2022-09-09T06:44:42;19.00;20.10
11423;DHT22;5768;51.476;7.210;2022-09-09T06:49:45;19.30;20.00
11423;DHT22;5768;51.476;7.210;2022-09-09T06:54:48;19.50;19.70
11423;DHT22;5768;51.476;7.210;2022-09-09T06:59:50;19.50;19.00
11423;DHT22;5768;51.476;7.210;2022-09-09T07:04:54;19.50;19.20
11423;DHT22;5768;51.476;7.210;2022-09-09T07:09:57;19.50;18.70
11423;DHT22;5768;51.476;7.210;2022-09-09T07:14:59;19.80;18.50
11423;DHT22;5768;51.476;7.210;2022-09-09T07:20:04;19.90;18.10
11423;DHT22;5768;51.476;7.210;2022-09-09T07:25:08;20.30;17.80
11423;DHT22;5768;51.476;7.210;2022-09-09T07:30:11;20.40;17.20
11423;DHT22;5768;51.476;7.210;2022-09-09T07:35:15;20.50;17.00
11423;DHT22;5768;51.476;7.210;2022-09-09T07:40:17;20.40;16.40
11423;DHT22;5768;51.476;7.210;2022-09-09T07:45:22;20.30;17.00
11423;DHT22;5768;51.476;7.210;2022-09-09T07:50:26;20.20;16.60
11423;DHT22;5768;51.476;7.210;2022-09-09T07:55:28;19.90;16.90
11423;DHT22;5768;51.476;7.210;2022-09-09T08:00:31;19.90;17.00
11423;DHT22;5768;51.476;7.210;2022-09-09T08:05:35;19.90;16.80
11423;DHT22;5768;51.476;7.210;2022-09-09T08:10:37;20.10;17.00
11423;DHT22;5768;51.476;7.210;2022-09-09T08:15:39;20.20;16.70
11423;DHT22;5768;51.476;7.210;2022-09-09T08:20:43;20.40;16.50
11423;DHT22;5768;51.476;7.210;2022-09-09T08:25:45;20.40;16.30
11423;DHT22;5768;51.476;7.210;2022-09-09T08:30:49;20.60;16.00
11423;DHT22;5768;51.476;7.210;2022-09-09T08:35:53;20.40;16.10
11423;DHT22;5768;51.476;7.210;2022-09-09T08:41:00;20.30;16.10
11423;DHT22;5768;51.476;7.210;2022-09-09T08:46:17;20.00;16.50
11423;DHT22;5768;51.476;7.210;2022-09-09T08:51:28;19.90;16.20
11423;DHT22;5768;51.476;7.210;2022-09-09T08:56:33;20.00;16.10
11423;DHT22;5768;51.476;7.210;2022-09-09T09:01:45;21.00;15.30
11423;DHT22;5768;51.476;7.210;2022-09-09T09:07:01;21.30;14.90
11423;DHT22;5768;51.476;7.210;2022-09-09T09:12:16;21.30;14.50
11423;DHT22;5768;51.476;7.210;2022-09-09T09:17:21;21.40;14.90
11423;DHT22;5768;51.476;7.210;2022-09-09T09:22:32;20.90;14.90
11423;DHT22;5768;51.476;7.210;2022-09-09T09:27:49;21.00;15.00
11423;DHT22;5768;51.476;7.210;2022-09-09T09:33:04;20.70;15.00
11423;DHT22;5768;51.476;7.210;2022-09-09T09:38:17;20.60;15.20
11423;DHT22;5768;51.476;7.210;2022-09-09T09:43:24;20.90;15.00
11423;DHT22;5768;51.476;7.210;2022-09-09T09:48:29;21.30;14.80
11423;DHT22;5768;51.476;7.210;2022-09-09T09:53:34;21.60;14.50
11423;DHT22;5768;51.476;7.210;2022-09-09T09:58:49;22.20;14.10
11423;DHT22;5768;51.476;7.210;2022-09-09T10:03:57;22.70;13.60
11423;DHT22;5768;51.476;7.210;2022-09-09T10:09:03;22.40;13.60
11423;DHT22;5768;51.476;7.210;2022-09-09T10:14:27;22.60;13.50
11423;DHT22;5768;51.476;7.210;2022-09-09T10:19:37;22.20;13.50
11423;DHT22;5768;51.476;7.210;2022-09-09T10:25:01;22.20;13.30
11423;DHT22;5768;51.476;7.210;2022-09-09T10:30:24;22.20;13.00
11423;DHT22;5768;51.476;7.210;2022-09-09T10:35:35;22.40;13.00
11423;DHT22;5768;51.476;7.210;2022-09-09T10:41:00;22.30;13.10
11423;DHT22;5768;51.476;7.210;2022-09-09T10:46:20;22.20;12.90
11423;DHT22;5768;51.476;7.210;2022-09-09T10:51:36;22.30;12.80
11423;DHT22;5768;51.476;7.210;2022-09-09T10:56:58;22.90;12.60
11423;DHT22;5768;51.476;7.210;2022-09-09T11:02:12;23.60;12.20
11423;DHT22;5768;51.476;7.210;2022-09-09T11:07:41;23.60;11.90
11423;DHT22;5768;51.476;7.210;2022-09-09T11:12:49;23.20;12.20
11423;DHT22;5768;51.476;7.210;2022-09-09T11:17:56;22.60;12.20
11423;DHT22;5768;51.476;7.210;2022-09-09T11:23:04;22.20;12.40
11423;DHT22;5768;51.476;7.210;2022-09-09T11:28:28;22.10;12.50
11423;DHT22;5768;51.476;7.210;2022-09-09T11:34:06;22.80;12.50
11423;DHT22;5768;51.476;7.210;2022-09-09T11:39:48;23.50;12.30
11423;DHT22;5768;51.476;7.210;2022-09-09T11:45:20;23.90;12.10
11423;DHT22;5768;51.476;7.210;2022-09-09T11:50:36;23.30;12.10
11423;DHT22;5768;51.476;7.210;2022-09-09T11:55:40;23.30;12.20
11423;DHT22;5768;51.476;7.210;2022-09-09T12:00:45;23.40;12.00
11423;DHT22;5768;51.476;7.210;2022-09-09T12:05:50;22.30;12.30
11423;DHT22;5768;51.476;7.210;2022-09-09T12:10:55;22.40;12.50
11423;DHT22;5768;51.476;7.210;2022-09-09T12:16:00;22.50;12.80
11423;DHT22;5768;51.476;7.210;2022-09-09T12:21:06;22.00;12.80
11423;DHT22;5768;51.476;7.210;2022-09-09T12:26:26;21.80;13.30
11423;DHT22;5768;51.476;7.210;2022-09-09T12:31:41;22.80;13.00
11423;DHT22;5768;51.476;7.210;2022-09-09T12:36:54;24.30;12.50
11423;DHT22;5768;51.476;7.210;2022-09-09T12:42:00;24.00;12.50
11423;DHT22;5768;51.476;7.210;2022-09-09T12:47:06;23.40;12.50
11423;DHT22;5768;51.476;7.210;2022-09-09T12:52:14;23.00;12.70
11423;DHT22;5768;51.476;7.210;2022-09-09T12:57:23;22.90;12.80
11423;DHT22;5768;51.476;7.210;2022-09-09T13:02:28;24.00;12.70
11423;DHT22;5768;51.476;7.210;2022-09-09T13:07:30;24.60;12.60
11423;DHT22;5768;51.476;7.210;2022-09-09T13:12:32;27.40;11.80
11423;DHT22;5768;51.476;7.210;2022-09-09T13:17:36;29.10;11.10
11423;DHT22;5768;51.476;7.210;2022-09-09T13:22:40;29.50;10.70
11423;DHT22;5768;51.476;7.210;2022-09-09T13:27:52;27.60;11.10
11423;DHT22;5768;51.476;7.210;2022-09-09T13:33:03;26.40;11.50
11423;DHT22;5768;51.476;7.210;2022-09-09T13:38:21;25.00;11.80
11423;DHT22;5768;51.476;7.210;2022-09-09T13:43:26;24.00;12.40
11423;DHT22;5768;51.476;7.210;2022-09-09T13:48:31;22.90;12.80
11423;DHT22;5768;51.476;7.210;2022-09-09T13:53:33;22.30;13.30
11423;DHT22;5768;51.476;7.210;2022-09-09T13:58:35;20.20;19.20
11423;DHT22;5768;51.476;7.210;2022-09-09T14:03:38;19.50;21.10
11423;DHT22;5768;51.476;7.210;2022-09-09T14:08:41;19.60;19.90
11423;DHT22;5768;51.476;7.210;2022-09-09T14:13:43;19.80;19.80
11423;DHT22;5768;51.476;7.210;2022-09-09T14:18:46;20.20;18.90
11423;DHT22;5768;51.476;7.210;2022-09-09T14:23:49;21.70;17.10
11423;DHT22;5768;51.476;7.210;2022-09-09T14:28:51;24.90;14.90
11423;DHT22;5768;51.476;7.210;2022-09-09T14:33:55;26.30;13.00
11423;DHT22;5768;51.476;7.210;2022-09-09T14:38:57;26.40;12.90
11423;DHT22;5768;51.476;7.210;2022-09-09T14:43:59;26.20;13.10
11423;DHT22;5768;51.476;7.210;2022-09-09T14:49:03;25.30;13.80
11423;DHT22;5768;51.476;7.210;2022-09-09T14:54:05;24.90;13.70
11423;DHT22;5768;51.476;7.210;2022-09-09T14:59:07;25.60;13.40
11423;DHT22;5768;51.476;7.210;2022-09-09T15:04:12;28.60;12.50
11423;DHT22;5768;51.476;7.210;2022-09-09T15:09:15;28.00;12.20
11423;DHT22;5768;51.476;7.210;2022-09-09T15:14:17;25.50;12.80
11423;DHT22;5768;51.476;7.210;2022-09-09T15:19:21;23.80;13.50
11423;DHT22;5768;51.476;7.210;2022-09-09T15:24:23;22.30;15.10
11423;DHT22;5768;51.476;7.210;2022-09-09T15:29:26;19.80;16.70
11423;DHT22;5768;51.476;7.210;2022-09-09T15:34:29;19.10;17.90
11423;DHT22;5768;51.476;7.210;2022-09-09T15:39:32;18.80;18.50
11423;DHT22;5768;51.476;7.210;2022-09-09T15:44:39;19.00;18.40
11423;DHT22;5768;51.476;7.210;2022-09-09T15:49:44;19.40;18.40
11423;DHT22;5768;51.476;7.210;2022-09-09T15:54:46;19.90;17.80
11423;DHT22;5768;51.476;7.210;2022-09-09T15:59:48;20.10;17.30
11423;DHT22;5768;51.476;7.210;2022-09-09T16:04:51;20.20;17.30
11423;DHT22;5768;51.476;7.210;2022-09-09T16:09:53;20.40;16.70
11423;DHT22;5768;51.476;7.210;2022-09-09T16:14:55;20.50;16.40
11423;DHT22;5768;51.476;7.210;2022-09-09T16:19:59;20.70;16.10
11423;DHT22;5768;51.476;7.210;2022-09-09T16:25:01;20.80;16.00
11423;DHT22;5768;51.476;7.210;2022-09-09T16:30:04;21.10;16.20
11423;DHT22;5768;51.476;7.210;2022-09-09T16:35:08;21.50;16.10
11423;DHT22;5768;51.476;7.210;2022-09-09T16:40:11;21.40;15.70
11423;DHT22;5768;51.476;7.210;2022-09-09T16:45:13;21.30;15.80
11423;DHT22;5768;51.476;7.210;2022-09-09T16:50:16;21.00;16.40
11423;DHT22;5768;51.476;7.210;2022-09-09T16:55:18;20.80;16.10
11423;DHT22;5768;51.476;7.210;2022-09-09T17:00:21;20.60;16.60
11423;DHT22;5768;51.476;7.210;2022-09-09T17:05:25;20.30;16.90
11423;DHT22;5768;51.476;7.210;2022-09-09T17:10:27;20.20;16.90
11423;DHT22;5768;51.476;7.210;2022-09-09T17:15:29;20.00;17.30
11423;DHT22;5768;51.476;7.210;2022-09-09T17:20:35;19.90;17.40
11423;DHT22;5768;51.476;7.210;2022-09-09T17:25:37;19.60;17.50
11423;DHT22;5768;51.476;7.210;2022-09-09T17:30:40;19.40;17.90
11423;DHT22;5768;51.476;7.210;2022-09-09T17:35:45;19.30;18.60
11423;DHT22;5768;51.476;7.210;2022-09-09T17:40:48;19.30;18.80
11423;DHT22;5768;51.476;7.210;2022-09-09T17:45:51;19.10;19.00
11423;DHT22;5768;51.476;7.210;2022-09-09T17:50:58;19.00;19.50
11423;DHT22;5768;51.476;7.210;2022-09-09T17:56:05;18.90;20.00
11423;DHT22;5768;51.476;7.210;2022-09-09T18:01:10;18.80;19.90
11423;DHT22;5768;51.476;7.210;2022-09-09T18:06:16;18.80;20.70
11423;DHT22;5768;51.476;7.210;2022-09-09T18:11:22;18.80;20.60
11423;DHT22;5768;51.476;7.210;2022-09-09T18:16:27;18.80;21.40
11423;DHT22;5768;51.476;7.210;2022-09-09T18:21:35;18.80;20.60
11423;DHT22;5768;51.476;7.210;2022-09-09T18:26:39;18.70;21.20
11423;DHT22;5768;51.476;7.210;2022-09-09T18:31:42;18.70;21.90
11423;DHT22;5768;51.476;7.210;2022-09-09T18:36:48;18.90;21.00
11423;DHT22;5768;51.476;7.210;2022-09-09T18:41:54;18.70;21.00
11423;DHT22;5768;51.476;7.210;2022-09-09T18:47:00;18.60;21.30
11423;DHT22;5768;51.476;7.210;2022-09-09T18:52:04;18.60;21.00
11423;DHT22;5768;51.476;7.210;2022-09-09T18:57:06;18.50;21.10
11423;DHT22;5768;51.476;7.210;2022-09-09T19:02:09;18.40;21.20
11423;DHT22;5768;51.476;7.210;2022-09-09T19:07:13;18.10;21.20
11423;DHT22;5768;51.476;7.210;2022-09-09T19:12:15;18.10;21.70
11423;DHT22;5768;51.476;7.210;2022-09-09T19:17:17;18.00;21.90
11423;DHT22;5768;51.476;7.210;2022-09-09T19:22:21;18.00;22.00
11423;DHT22;5768;51.476;7.210;2022-09-09T19:27:24;18.00;22.00
11423;DHT22;5768;51.476;7.210;2022-09-09T19:32:26;17.90;21.80
11423;DHT22;5768;51.476;7.210;2022-09-09T19:37:30;17.90;22.40
11423;DHT22;5768;51.476;7.210;2022-09-09T19:42:32;17.90;22.10
11423;DHT22;5768;51.476;7.210;2022-09-09T19:47:35;17.80;22.20
11423;DHT22;5768;51.476;7.210;2022-09-09T19:52:38;17.80;22.20
11423;DHT22;5768;51.476;7.210;2022-09-09T19:57:40;18.00;22.90
11423;DHT22;5768;51.476;7.210;2022-09-09T20:02:42;17.50;23.00
11423;DHT22;5768;51.476;7.210;2022-09-09T20:07:46;17.70;23.30
11423;DHT22;5768;51.476;7.210;2022-09-09T20:12:48;17.70;23.00
11423;DHT22;5768;51.476;7.210;2022-09-09T20:17:50;17.80;22.90
11423;DHT22;5768;51.476;7.210;2022-09-09T20:22:54;17.70;22.70
11423;DHT22;5768;51.476;7.210;2022-09-09T20:27:56;17.60;23.30
11423;DHT22;5768;51.476;7.210;2022-09-09T20:32:58;17.80;23.50
11423;DHT22;5768;51.476;7.210;2022-09-09T20:38:02;17.80;23.10
11423;DHT22;5768;51.476;7.210;2022-09-09T20:43:04;18.00;22.80
11423;DHT22;5768;51.476;7.210;2022-09-09T20:48:06;17.90;22.60
11423;DHT22;5768;51.476;7.210;2022-09-09T20:53:10;17.90;22.70
11423;DHT22;5768;51.476;7.210;2022-09-09T20:58:12;17.90;22.40
11423;DHT22;5768;51.476;7.210;2022-09-09T21:03:14;17.90;22.50
11423;DHT22;5768;51.476;7.210;2022-09-09T21:08:17;17.70;22.70
11423;DHT22;5768;51.476;7.210;2022-09-09T21:13:20;17.40;23.60
11423;DHT22;5768;51.476;7.210;2022-09-09T21:18:23;17.40;23.70
11423;DHT22;5768;51.476;7.210;2022-09-09T21:23:29;17.50;23.90
11423;DHT22;5768;51.476;7.210;2022-09-09T21:28:32;17.60;23.80
11423;DHT22;5768;51.476;7.210;2022-09-09T21:33:35;17.70;23.60
11423;DHT22;5768;51.476;7.210;2022-09-09T21:38:39;17.50;23.60
11423;DHT22;5768;51.476;7.210;2022-09-09T21:43:44;17.50;24.10
11423;DHT22;5768;51.476;7.210;2022-09-09T21:48:47;17.50;24.00
11423;DHT22;5768;51.476;7.210;2022-09-09T21:53:53;17.40;24.10
11423;DHT22;5768;51.476;7.210;2022-09-09T21:58:58;17.80;23.90
11423;DHT22;5768;51.476;7.210;2022-09-09T22:04:02;17.30;24.30
11423;DHT22;5768;51.476;7.210;2022-09-09T22:09:05;17.40;24.30
11423;DHT22;5768;51.476;7.210;2022-09-09T22:14:08;17.40;24.50
11423;DHT22;5768;51.476;7.210;2022-09-09T22:19:10;17.50;24.30
11423;DHT22;5768;51.476;7.210;2022-09-09T22:24:13;17.50;24.40
11423;DHT22;5768;51.476;7.210;2022-09-09T22:29:15;17.20;24.80
11423;DHT22;5768;51.476;7.210;2022-09-09T22:34:17;17.40;24.80
11423;DHT22;5768;51.476;7.210;2022-09-09T22:39:22;17.50;24.80
11423;DHT22;5768;51.476;7.210;2022-09-09T22:44:25;17.40;24.50
11423;DHT22;5768;51.476;7.210;2022-09-09T22:49:28;17.40;24.60
11423;DHT22;5768;51.476;7.210;2022-09-09T22:54:32;17.40;24.50
11423;DHT22;5768;51.476;7.210;2022-09-09T22:59:34;17.20;24.90
11423;DHT22;5768;51.476;7.210;2022-09-09T23:04:36;17.10;25.00
11423;DHT22;5768;51.476;7.210;2022-09-09T23:09:40;17.10;25.00
11423;DHT22;5768;51.476;7.210;2022-09-09T23:14:42;17.00;25.20
11423;DHT22;5768;51.476;7.210;2022-09-09T23:19:44;16.90;25.20
11423;DHT22;5768;51.476;7.210;2022-09-09T23:24:48;16.90;25.40
11423;DHT22;5768;51.476;7.210;2022-09-09T23:29:53;16.90;25.50
11423;DHT22;5768;51.476;7.210;2022-09-09T23:34:56;16.80;25.50
11423;DHT22;5768;51.476;7.210;2022-09-09T23:40:07;16.80;25.40
11423;DHT22;5768;51.476;7.210;2022-09-09T23:45:09;16.80;25.60
11423;DHT22;5768;51.476;7.210;2022-09-09T23:50:12;16.70;25.50
11423;DHT22;5768;51.476;7.210;2022-09-09T23:55:15;16.80;25.40
